createdAt,value
2022-08-17T00:02:26.304Z,36.70
2022-08-17T00:04:55.363Z,35.90
2022-08-17T00:07:22.977Z,35.70
2022-08-17T00:09:49.764Z,35.80
2022-08-17T00:12:41.176Z,35.70
2022-08-17T00:15:04.502Z,35.90
2022-08-17T00:17:31.280Z,36.20
2022-08-17T00:19:57.996Z,36.40
2022-08-17T00:22:31.592Z,36.70
2022-08-17T00:25:03.615Z,36.90
2022-08-17T00:27:30.342Z,37.30
2022-08-17T00:29:57.206Z,37.40
2022-08-17T00:33:12.526Z,37.60
2022-08-17T00:35:13.997Z,37.80
2022-08-17T00:37:40.791Z,38.10
2022-08-17T00:40:10.018Z,38.10
2022-08-17T00:42:37.170Z,38.10
2022-08-17T00:45:06.185Z,38.10
2022-08-17T00:47:32.937Z,38.10
2022-08-17T00:49:59.799Z,38.00
2022-08-17T00:52:33.169Z,38.00
2022-08-17T00:55:00.909Z,38.10
2022-08-17T00:57:42.452Z,38.00
2022-08-17T01:00:16.917Z,38.00
2022-08-17T01:02:46.502Z,38.90
2022-08-17T01:05:19.032Z,38.20
2022-08-17T01:07:49.331Z,38.00
2022-08-17T01:10:59.823Z,38.00
2022-08-17T01:13:07.011Z,38.20
2022-08-17T01:15:39.868Z,38.00
2022-08-17T01:18:09.553Z,38.10
2022-08-17T01:20:47.834Z,38.00
2022-08-17T01:23:19.895Z,38.00
2022-08-17T01:25:54.436Z,38.80
2022-08-17T01:28:52.581Z,38.30
2022-08-17T01:31:10.089Z,38.50
2022-08-17T01:33:37.263Z,38.60
2022-08-17T01:36:07.228Z,38.70
2022-08-17T01:38:36.060Z,38.80
2022-08-17T01:41:12.410Z,39.00
2022-08-17T01:44:01.920Z,39.00
2022-08-17T01:46:33.407Z,39.00
2022-08-17T01:49:01.164Z,39.10
2022-08-17T01:51:32.718Z,39.20
2022-08-17T01:54:05.234Z,39.40
2022-08-17T01:56:34.069Z,39.40
2022-08-17T01:59:01.053Z,39.40
2022-08-17T02:01:31.541Z,39.60
2022-08-17T02:04:01.110Z,39.60
2022-08-17T02:06:31.658Z,39.60
2022-08-17T02:09:18.012Z,39.60
2022-08-17T02:11:45.339Z,39.70
2022-08-17T02:14:13.381Z,39.80
2022-08-17T02:16:41.385Z,39.90
2022-08-17T02:19:12.163Z,40.00
2022-08-17T02:21:40.555Z,40.00
2022-08-17T02:24:10.901Z,40.00
2022-08-17T02:26:37.792Z,40.00
2022-08-17T02:29:04.830Z,40.10
2022-08-17T02:31:31.972Z,40.10
2022-08-17T02:34:03.874Z,40.20
2022-08-17T02:36:33.896Z,40.20
2022-08-17T02:39:10.280Z,40.20
2022-08-17T02:41:37.605Z,40.20
2022-08-17T02:44:05.839Z,40.30
2022-08-17T02:46:32.775Z,40.30
2022-08-17T02:48:59.940Z,40.40
2022-08-17T02:51:27.303Z,40.30
2022-08-17T02:54:35.575Z,40.60
2022-08-17T02:56:41.032Z,40.60
2022-08-17T02:59:07.824Z,40.50
2022-08-17T03:01:34.765Z,40.60
2022-08-17T03:04:01.541Z,40.70
2022-08-17T03:06:29.224Z,40.70
2022-08-17T03:08:55.948Z,40.80
2022-08-17T03:11:23.553Z,40.70
2022-08-17T03:13:50.411Z,40.80
2022-08-17T03:16:17.179Z,40.90
2022-08-17T03:18:44.065Z,40.90
2022-08-17T03:21:11.025Z,40.90
2022-08-17T03:23:41.098Z,41.10
2022-08-17T03:26:12.300Z,41.20
2022-08-17T03:28:42.735Z,41.10
2022-08-17T03:31:09.677Z,41.20
2022-08-17T03:33:36.433Z,41.20
2022-08-17T03:36:03.482Z,41.20
2022-08-17T03:38:30.394Z,41.00
2022-08-17T03:41:07.197Z,41.00
2022-08-17T03:43:34.647Z,41.20
2022-08-17T03:46:29.040Z,41.20
2022-08-17T03:49:25.872Z,41.10
2022-08-17T03:52:12.502Z,41.20
2022-08-17T03:54:58.763Z,41.30
2022-08-17T03:57:26.034Z,41.80
2022-08-17T03:59:54.504Z,41.80
2022-08-17T04:02:30.087Z,41.80
2022-08-17T04:04:57.360Z,41.80
2022-08-17T04:07:27.511Z,41.80
2022-08-17T04:09:54.346Z,41.80
2022-08-17T04:12:23.135Z,41.80
2022-08-17T04:14:53.124Z,41.80
2022-08-17T04:17:27.934Z,41.80
2022-08-17T04:19:55.771Z,41.80
2022-08-17T04:22:30.292Z,41.80
2022-08-17T04:25:01.759Z,41.80
2022-08-17T04:27:28.512Z,41.70
2022-08-17T04:29:56.097Z,41.60
2022-08-17T04:33:03.383Z,41.60
2022-08-17T04:35:10.228Z,41.60
2022-08-17T04:37:37.008Z,41.60
2022-08-17T04:40:23.075Z,41.70
2022-08-17T04:43:03.945Z,41.70
2022-08-17T04:45:32.243Z,41.70
2022-08-17T04:48:00.228Z,41.70
2022-08-17T04:50:27.603Z,41.70
2022-08-17T04:52:54.544Z,41.70
2022-08-17T04:55:21.695Z,41.70
2022-08-17T04:57:48.472Z,41.70
2022-08-17T05:00:15.519Z,41.80
2022-08-17T05:02:50.729Z,41.80
2022-08-17T05:05:27.255Z,41.80
2022-08-17T05:07:57.918Z,41.80
2022-08-17T05:10:26.317Z,41.80
2022-08-17T05:13:01.074Z,41.80
2022-08-17T05:15:29.296Z,41.80
2022-08-17T05:18:00.316Z,41.80
2022-08-17T05:20:27.517Z,41.80
2022-08-17T05:22:59.605Z,41.80
2022-08-17T05:25:29.845Z,42.30
2022-08-17T05:27:59.760Z,42.20
2022-08-17T05:30:28.968Z,42.20
2022-08-17T05:33:11.132Z,42.40
2022-08-17T05:35:40.135Z,42.40
2022-08-17T05:38:08.252Z,42.50
2022-08-17T05:40:36.388Z,42.50
2022-08-17T05:43:33.915Z,42.60
2022-08-17T05:46:06.645Z,42.70
2022-08-17T05:48:42.251Z,43.10
2022-08-17T05:51:27.601Z,43.10
2022-08-17T05:54:24.812Z,43.00
2022-08-17T05:57:03.537Z,43.00
2022-08-17T05:59:44.541Z,43.10
2022-08-17T06:02:24.465Z,43.30
2022-08-17T06:05:00.029Z,43.10
2022-08-17T06:07:38.891Z,43.00
2022-08-17T06:10:20.983Z,43.10
2022-08-17T06:13:08.968Z,43.20
2022-08-17T06:16:31.145Z,43.20
2022-08-17T06:19:06.870Z,43.10
2022-08-17T06:21:38.792Z,43.20
2022-08-17T06:24:24.168Z,43.20
2022-08-17T06:26:52.199Z,43.20
2022-08-17T06:29:31.023Z,43.30
2022-08-17T06:31:57.771Z,43.40
2022-08-17T06:34:24.600Z,43.50
2022-08-17T06:37:00.326Z,43.50
2022-08-17T06:39:35.995Z,43.40
2022-08-17T06:42:54.116Z,43.20
2022-08-17T06:45:35.854Z,43.40
2022-08-17T06:48:10.139Z,43.10
2022-08-17T06:50:47.049Z,43.20
2022-08-17T06:53:32.848Z,43.00
2022-08-17T06:56:10.050Z,42.90
2022-08-17T06:58:40.207Z,42.60
2022-08-17T07:01:19.139Z,42.30
2022-08-17T07:04:11.779Z,42.30
2022-08-17T07:06:52.383Z,42.30
2022-08-17T07:09:28.136Z,42.40
2022-08-17T07:12:22.235Z,42.40
2022-08-17T07:15:01.028Z,42.40
2022-08-17T07:17:46.620Z,42.40
2022-08-17T07:20:22.646Z,42.40
2022-08-17T07:23:00.453Z,42.40
2022-08-17T07:25:28.511Z,42.40
2022-08-17T07:28:00.237Z,42.40
2022-08-17T07:30:47.604Z,42.40
2022-08-17T07:33:30.071Z,42.50
2022-08-17T07:35:58.062Z,42.60
2022-08-17T07:38:31.156Z,42.60
2022-08-17T07:40:58.220Z,42.60
2022-08-17T07:43:31.814Z,42.30
2022-08-17T07:46:17.902Z,42.30
2022-08-17T07:48:52.226Z,41.90
2022-08-17T07:51:30.304Z,42.10
2022-08-17T07:54:22.221Z,41.60
2022-08-17T07:56:54.971Z,41.30
2022-08-17T07:59:34.095Z,40.70
2022-08-17T08:02:05.225Z,40.70
2022-08-17T08:04:59.849Z,40.30
2022-08-17T08:07:35.196Z,39.80
2022-08-17T08:10:09.269Z,39.50
2022-08-17T08:12:47.636Z,39.30
2022-08-17T08:15:23.725Z,38.90
2022-08-17T08:17:56.522Z,39.50
2022-08-17T08:20:53.888Z,39.10
2022-08-17T08:23:53.742Z,38.50
2022-08-17T08:26:35.529Z,38.60
2022-08-17T08:29:08.312Z,38.70
2022-08-17T08:32:03.430Z,38.70
2022-08-17T08:35:07.680Z,38.70
2022-08-17T08:37:51.424Z,38.30
2022-08-17T08:40:32.829Z,38.30
2022-08-17T08:43:03.859Z,37.50
2022-08-17T08:45:50.743Z,37.30
2022-08-17T08:48:56.640Z,37.20
2022-08-17T08:52:12.750Z,37.50
2022-08-17T08:54:56.660Z,36.90
2022-08-17T08:57:34.171Z,36.70
2022-08-17T09:00:21.235Z,36.50
2022-08-17T09:03:14.479Z,36.40
2022-08-17T09:06:06.733Z,36.10
2022-08-17T09:09:15.554Z,36.70
2022-08-17T09:12:02.779Z,35.80
2022-08-17T09:15:10.833Z,35.50
2022-08-17T09:17:49.523Z,35.70
2022-08-17T09:20:36.909Z,35.70
2022-08-17T09:23:09.865Z,35.70
2022-08-17T09:26:02.942Z,35.80
2022-08-17T09:28:35.121Z,35.60
2022-08-17T09:31:11.588Z,35.80
2022-08-17T09:33:44.744Z,35.60
2022-08-17T09:36:11.500Z,35.30
2022-08-17T09:39:15.015Z,35.70
2022-08-17T09:42:00.524Z,35.70
2022-08-17T09:44:36.176Z,35.70
2022-08-17T09:47:22.560Z,35.60
2022-08-17T09:49:56.353Z,35.70
2022-08-17T09:52:26.399Z,35.90
2022-08-17T09:54:55.695Z,36.00
2022-08-17T09:57:43.230Z,36.00
2022-08-17T10:00:25.107Z,35.90
2022-08-17T10:03:16.741Z,35.80
2022-08-17T10:06:00.240Z,35.90
2022-08-17T10:08:51.915Z,36.30
2022-08-17T10:12:04.381Z,36.30
2022-08-17T10:15:08.084Z,36.40
2022-08-17T10:17:45.432Z,36.50
2022-08-17T10:20:15.199Z,36.60
2022-08-17T10:23:19.636Z,36.70
2022-08-17T10:26:14.699Z,36.90
2022-08-17T10:28:44.384Z,37.00
2022-08-17T10:31:34.289Z,37.00
2022-08-17T10:34:20.667Z,37.30
2022-08-17T10:36:50.440Z,37.20
2022-08-17T10:39:33.413Z,37.50
2022-08-17T10:42:15.638Z,37.50
2022-08-17T10:45:29.431Z,37.50
2022-08-17T10:48:06.143Z,37.40
2022-08-17T10:50:49.686Z,37.40
2022-08-17T10:53:31.877Z,37.40
2022-08-17T10:56:13.783Z,37.50
2022-08-17T10:58:57.194Z,37.50
2022-08-17T11:01:33.114Z,37.60
2022-08-17T11:04:30.581Z,37.60
2022-08-17T11:07:14.666Z,37.80
2022-08-17T11:09:50.262Z,37.90
2022-08-17T11:12:45.840Z,38.20
2022-08-17T11:15:23.804Z,38.30
2022-08-17T11:18:01.418Z,38.60
2022-08-17T11:20:52.633Z,38.60
2022-08-17T11:23:19.656Z,38.30
2022-08-17T11:25:53.090Z,38.60
2022-08-17T11:28:25.283Z,38.60
2022-08-17T11:30:56.240Z,38.70
2022-08-17T11:33:29.179Z,38.60
2022-08-17T11:36:19.095Z,38.70
2022-08-17T11:39:07.430Z,38.70
2022-08-17T11:42:19.990Z,38.70
2022-08-17T11:45:00.664Z,38.70
2022-08-17T11:48:27.930Z,38.80
2022-08-17T11:51:25.430Z,38.80
2022-08-17T11:54:14.678Z,38.70
2022-08-17T11:56:49.912Z,38.70
2022-08-17T11:59:39.459Z,38.90
2022-08-17T12:02:35.230Z,38.90
2022-08-17T12:05:26.110Z,38.80
2022-08-17T12:08:19.724Z,38.80
2022-08-17T12:11:06.364Z,38.70
2022-08-17T12:13:45.183Z,38.60
2022-08-17T12:16:20.097Z,39.10
2022-08-17T12:18:58.569Z,39.00
2022-08-17T12:21:45.009Z,38.80
2022-08-17T12:24:25.582Z,39.20
2022-08-17T12:27:01.037Z,39.30
2022-08-17T12:29:38.387Z,39.60
2022-08-17T12:32:07.098Z,39.60
2022-08-17T12:34:39.831Z,39.60
2022-08-17T12:37:23.098Z,39.40
2022-08-17T12:40:06.454Z,39.70
2022-08-17T12:42:37.463Z,40.00
2022-08-17T12:45:22.624Z,39.80
2022-08-17T12:47:59.010Z,39.70
2022-08-17T12:50:28.266Z,39.60
2022-08-17T12:53:01.619Z,39.40
2022-08-17T12:55:32.561Z,39.80
2022-08-17T12:58:01.970Z,39.90
2022-08-17T13:00:33.712Z,39.60
2022-08-17T13:03:22.551Z,39.30
2022-08-17T13:05:52.367Z,39.20
2022-08-17T13:08:27.984Z,38.90
2022-08-17T13:11:03.638Z,39.10
2022-08-17T13:13:36.987Z,39.10
2022-08-17T13:16:11.338Z,39.10
2022-08-17T13:19:04.775Z,39.10
2022-08-17T13:21:33.203Z,39.10
2022-08-17T13:24:13.667Z,39.10
2022-08-17T13:27:01.403Z,39.20
2022-08-17T13:29:38.924Z,39.30
2022-08-17T13:32:08.501Z,39.20
2022-08-17T13:35:12.648Z,39.10
2022-08-17T13:37:36.178Z,39.20
2022-08-17T13:40:11.968Z,39.00
2022-08-17T13:42:52.931Z,39.20
2022-08-17T13:45:35.563Z,39.30
2022-08-17T13:48:12.427Z,38.70
2022-08-17T13:50:59.556Z,38.20
2022-08-17T13:53:33.593Z,38.60
2022-08-17T13:56:34.951Z,38.50
2022-08-17T13:59:52.792Z,39.00
2022-08-17T14:02:19.180Z,38.30
2022-08-17T14:04:47.654Z,38.80
2022-08-17T14:07:15.947Z,38.60
2022-08-17T14:09:55.623Z,38.60
2022-08-17T14:12:26.123Z,38.40
2022-08-17T14:14:54.971Z,38.70
2022-08-17T14:17:23.006Z,38.50
2022-08-17T14:19:50.973Z,38.30
2022-08-17T14:22:26.981Z,37.80
2022-08-17T14:24:54.159Z,38.00
2022-08-17T14:27:21.820Z,38.20
2022-08-17T14:29:48.729Z,38.10
2022-08-17T14:32:32.053Z,37.80
2022-08-17T14:34:59.970Z,37.80
2022-08-17T14:37:28.497Z,37.90
2022-08-17T14:40:01.460Z,37.90
2022-08-17T14:42:31.331Z,38.00
2022-08-17T14:44:59.460Z,37.90
2022-08-17T14:47:26.692Z,38.10
2022-08-17T14:49:53.743Z,38.10
2022-08-17T14:52:21.790Z,38.10
2022-08-17T14:54:52.837Z,38.10
2022-08-17T14:57:26.178Z,38.20
2022-08-17T15:00:01.881Z,38.20
2022-08-17T15:02:30.896Z,38.30
2022-08-17T15:05:05.766Z,38.80
2022-08-17T15:07:32.604Z,39.10
2022-08-17T15:10:01.495Z,39.60
2022-08-17T15:12:33.067Z,39.60
2022-08-17T15:15:01.055Z,39.60
2022-08-17T15:17:43.882Z,39.50
2022-08-17T15:20:17.674Z,39.50
2022-08-17T15:22:45.817Z,40.00
2022-08-17T15:25:14.224Z,40.40
2022-08-17T15:27:41.615Z,40.30
2022-08-17T15:30:09.993Z,40.20
2022-08-17T15:32:40.838Z,39.40
2022-08-17T15:35:11.719Z,39.30
2022-08-17T15:37:40.162Z,39.80
2022-08-17T15:40:09.085Z,40.10
2022-08-17T15:42:36.642Z,40.00
2022-08-17T15:45:10.411Z,39.80
2022-08-17T15:47:37.531Z,39.70
2022-08-17T15:50:07.123Z,40.00
2022-08-17T15:52:40.102Z,39.90
2022-08-17T15:55:10.195Z,39.40
2022-08-17T15:57:37.152Z,39.40
2022-08-17T16:00:06.006Z,39.50
2022-08-17T16:03:15.106Z,39.60
2022-08-17T16:05:25.093Z,39.20
2022-08-17T16:07:53.008Z,39.10
2022-08-17T16:10:21.023Z,38.70
2022-08-17T16:12:49.654Z,38.30
2022-08-17T16:15:17.604Z,38.00
2022-08-17T16:17:44.427Z,37.60
2022-08-17T16:20:20.161Z,37.60
2022-08-17T16:22:50.214Z,37.70
2022-08-17T16:25:22.256Z,38.00
2022-08-17T16:27:53.600Z,38.10
2022-08-17T16:30:23.891Z,38.60
2022-08-17T16:32:53.013Z,39.50
2022-08-17T16:35:22.583Z,39.60
2022-08-17T16:37:49.403Z,39.70
2022-08-17T16:40:17.583Z,39.70
2022-08-17T16:42:48.334Z,39.70
2022-08-17T16:45:26.900Z,39.70
2022-08-17T16:47:54.911Z,39.70
2022-08-17T16:50:23.792Z,40.00
2022-08-17T16:52:51.339Z,40.40
2022-08-17T16:55:21.515Z,40.60
2022-08-17T16:57:50.353Z,40.80
2022-08-17T17:00:19.564Z,40.90
2022-08-17T17:02:48.212Z,40.80
2022-08-17T17:05:42.967Z,40.60
2022-08-17T17:08:25.542Z,40.50
2022-08-17T17:10:55.878Z,40.80
2022-08-17T17:13:36.674Z,40.80
2022-08-17T17:16:29.234Z,40.70
2022-08-17T17:19:07.697Z,40.70
2022-08-17T17:21:49.087Z,40.90
2022-08-17T17:24:47.123Z,41.00
2022-08-17T17:27:32.176Z,40.80
2022-08-17T17:30:15.226Z,40.60
2022-08-17T17:32:46.211Z,41.00
2022-08-17T17:35:57.506Z,41.30
2022-08-17T17:38:29.916Z,41.30
2022-08-17T17:41:06.776Z,41.50
2022-08-17T17:43:41.100Z,41.30
2022-08-17T17:46:28.330Z,41.60
2022-08-17T17:48:57.177Z,41.80
2022-08-17T17:52:06.928Z,41.60
2022-08-17T17:55:06.191Z,41.60
2022-08-17T17:57:32.953Z,41.60
2022-08-17T18:00:31.665Z,41.50
2022-08-17T18:03:16.727Z,41.30
2022-08-17T18:06:08.136Z,41.40
2022-08-17T18:08:49.212Z,41.60
2022-08-17T18:11:34.852Z,41.60
2022-08-17T18:14:17.227Z,41.50
2022-08-17T18:16:53.145Z,41.20
2022-08-17T18:19:20.784Z,41.30
2022-08-17T18:22:03.171Z,41.30
2022-08-17T18:24:33.815Z,41.70
2022-08-17T18:27:08.597Z,42.10
2022-08-17T18:29:46.921Z,42.20
2022-08-17T18:32:13.629Z,42.20
2022-08-17T18:34:48.697Z,42.10
2022-08-17T18:37:37.790Z,41.90
2022-08-17T18:40:17.068Z,41.30
2022-08-17T18:43:03.010Z,41.70
2022-08-17T18:45:40.973Z,41.80
2022-08-17T18:48:27.189Z,41.80
2022-08-17T18:51:01.483Z,41.70
2022-08-17T18:53:36.217Z,41.50
2022-08-17T18:56:37.419Z,41.40
2022-08-17T18:59:11.494Z,41.20
2022-08-17T19:01:52.338Z,41.00
2022-08-17T19:05:07.283Z,40.90
2022-08-17T19:07:40.704Z,40.80
2022-08-17T19:10:23.102Z,40.70
2022-08-17T19:13:12.705Z,40.70
2022-08-17T19:16:11.821Z,40.80
2022-08-17T19:19:05.871Z,40.70
2022-08-17T19:21:44.054Z,40.90
2022-08-17T19:24:23.402Z,41.00
2022-08-17T19:27:06.226Z,41.00
2022-08-17T19:29:42.933Z,41.00
2022-08-17T19:32:11.250Z,41.10
2022-08-17T19:34:39.645Z,41.20
2022-08-17T19:37:33.818Z,41.10
2022-08-17T19:40:24.477Z,41.10
2022-08-17T19:43:07.536Z,41.20
2022-08-17T19:45:45.141Z,41.10
2022-08-17T19:48:39.046Z,41.20
2022-08-17T19:51:15.543Z,41.30
2022-08-17T19:54:24.720Z,41.30
2022-08-17T19:57:18.277Z,41.40
2022-08-17T19:59:56.848Z,41.50
2022-08-17T20:02:47.390Z,41.70
2022-08-17T20:06:08.489Z,41.80
2022-08-17T20:08:31.483Z,41.90
2022-08-17T20:11:15.053Z,42.10
2022-08-17T20:13:46.530Z,42.30
2022-08-17T20:16:13.391Z,42.50
2022-08-17T20:18:47.634Z,42.60
2022-08-17T20:21:20.760Z,42.80
2022-08-17T20:23:47.528Z,43.20
2022-08-17T20:26:34.258Z,43.30
2022-08-17T20:29:16.733Z,43.30
2022-08-17T20:31:57.445Z,43.30
2022-08-17T20:34:33.634Z,43.30
2022-08-17T20:37:06.152Z,43.20
2022-08-17T20:39:43.067Z,43.20
2022-08-17T20:42:21.498Z,43.20
2022-08-17T20:44:51.498Z,43.20
2022-08-17T20:47:50.422Z,43.10
2022-08-17T20:50:33.496Z,43.10
2022-08-17T20:53:06.698Z,43.00
2022-08-17T20:55:39.322Z,43.20
2022-08-17T20:58:23.019Z,43.50
2022-08-17T21:01:14.516Z,43.70
2022-08-17T21:03:51.218Z,43.80
2022-08-17T21:06:21.173Z,44.00
2022-08-17T21:08:53.972Z,44.10
2022-08-17T21:12:02.945Z,44.20
2022-08-17T21:14:59.695Z,44.30
2022-08-17T21:17:48.962Z,44.40
2022-08-17T21:20:24.568Z,44.30
2022-08-17T21:23:27.263Z,44.50
2022-08-17T21:26:17.367Z,44.60
2022-08-17T21:29:30.860Z,44.60
2022-08-17T21:31:59.736Z,44.50
2022-08-17T21:34:39.335Z,44.50
2022-08-17T21:37:23.716Z,44.50
2022-08-17T21:40:22.771Z,44.40
2022-08-17T21:42:58.155Z,44.70
2022-08-17T21:45:36.667Z,44.80
2022-08-17T21:48:20.843Z,44.90
2022-08-17T21:50:59.092Z,45.00
2022-08-17T21:53:33.318Z,45.20
2022-08-17T21:56:00.742Z,45.20
2022-08-17T21:58:33.568Z,45.10
2022-08-17T22:01:38.933Z,45.10
2022-08-17T22:04:19.949Z,45.00
2022-08-17T22:06:54.204Z,45.10
2022-08-17T22:09:25.953Z,45.10
2022-08-17T22:12:20.029Z,45.00
2022-08-17T22:15:05.887Z,44.80
2022-08-17T22:17:36.435Z,44.70
2022-08-17T22:20:14.421Z,44.70
2022-08-17T22:23:08.831Z,44.70
2022-08-17T22:25:38.666Z,45.00
2022-08-17T22:28:10.773Z,45.10
2022-08-17T22:31:00.996Z,45.30
2022-08-17T22:33:39.521Z,45.40
2022-08-17T22:36:35.313Z,45.60
2022-08-17T22:39:26.185Z,45.70
2022-08-17T22:41:57.087Z,45.90
2022-08-17T22:44:36.368Z,45.90
2022-08-17T22:47:03.179Z,46.00
2022-08-17T22:49:32.769Z,45.50
2022-08-17T22:52:06.407Z,45.50
2022-08-17T22:54:52.517Z,45.60
2022-08-17T22:57:41.788Z,45.70
2022-08-17T23:00:47.388Z,46.10
2022-08-17T23:03:23.173Z,46.30
2022-08-17T23:06:08.292Z,46.40
2022-08-17T23:08:48.697Z,46.40
2022-08-17T23:11:15.661Z,46.40
2022-08-17T23:13:42.415Z,46.40
2022-08-17T23:16:09.226Z,46.70
2022-08-17T23:18:37.470Z,46.30
2022-08-17T23:21:05.647Z,46.20
2022-08-17T23:23:32.381Z,46.20
2022-08-17T23:25:59.100Z,46.30
2022-08-17T23:28:25.956Z,46.20
2022-08-17T23:30:52.719Z,46.50
2022-08-17T23:33:25.535Z,46.60
2022-08-17T23:35:53.710Z,46.60
2022-08-17T23:38:20.514Z,46.60
2022-08-17T23:40:47.236Z,46.60
2022-08-17T23:43:24.677Z,46.70
2022-08-17T23:45:54.219Z,46.90
2022-08-17T23:48:35.678Z,47.10
2022-08-17T23:51:14.441Z,47.10
2022-08-17T23:53:47.515Z,47.20
2022-08-17T23:56:15.227Z,47.20
2022-08-17T23:58:43.444Z,47.30
